createdAt,value
2022-08-16T00:00:30.725Z,21.21
2022-08-16T00:01:33.918Z,21.23
2022-08-16T00:02:30.460Z,21.23
2022-08-16T00:03:30.679Z,21.23
2022-08-16T00:04:31.850Z,21.29
2022-08-16T00:05:35.058Z,21.30
2022-08-16T00:06:31.491Z,21.34
2022-08-16T00:07:31.747Z,21.35
2022-08-16T00:08:36.868Z,21.35
2022-08-16T00:09:33.318Z,21.39
2022-08-16T00:10:32.652Z,21.38
2022-08-16T00:11:32.815Z,21.34
2022-08-16T00:12:33.139Z,21.32
2022-08-16T00:13:33.360Z,21.38
2022-08-16T00:14:34.647Z,21.39
2022-08-16T00:15:51.353Z,21.41
2022-08-16T00:17:01.503Z,21.41
2022-08-16T00:17:56.209Z,21.38
2022-08-16T00:18:35.853Z,21.36
2022-08-16T00:19:41.561Z,21.36
2022-08-16T00:20:36.354Z,21.38
2022-08-16T00:21:35.634Z,21.39
2022-08-16T00:22:35.897Z,21.36
2022-08-16T00:23:46.076Z,21.36
2022-08-16T00:24:37.559Z,21.36
2022-08-16T00:26:35.308Z,21.38
2022-08-16T00:26:43.788Z,21.34
2022-08-16T00:27:38.436Z,21.29
2022-08-16T00:28:37.753Z,21.21
2022-08-16T00:29:38.029Z,21.16
2022-08-16T00:30:38.325Z,21.16
2022-08-16T00:31:59.064Z,21.17
2022-08-16T00:32:39.904Z,21.14
2022-08-16T00:33:39.184Z,21.14
2022-08-16T00:34:44.192Z,21.13
2022-08-16T00:35:40.915Z,21.13
2022-08-16T00:36:40.054Z,21.09
2022-08-16T00:37:41.441Z,21.04
2022-08-16T00:38:43.764Z,21.01
2022-08-16T00:39:41.114Z,20.99
2022-08-16T00:40:43.620Z,20.96
2022-08-16T00:41:42.542Z,20.95
2022-08-16T00:42:41.903Z,20.96
2022-08-16T00:43:43.594Z,20.91
2022-08-16T00:44:42.523Z,20.90
2022-08-16T00:45:58.226Z,20.80
2022-08-16T00:46:54.073Z,20.76
2022-08-16T00:47:49.621Z,20.71
2022-08-16T00:48:45.681Z,20.72
2022-08-16T00:49:44.575Z,20.79
2022-08-16T00:50:44.438Z,20.69
2022-08-16T00:51:44.718Z,20.68
2022-08-16T00:52:46.018Z,20.69
2022-08-16T00:53:46.385Z,20.74
2022-08-16T00:54:45.653Z,20.77
2022-08-16T00:55:45.995Z,20.81
2022-08-16T00:56:58.359Z,20.77
2022-08-16T00:58:00.077Z,20.76
2022-08-16T00:58:47.832Z,20.87
2022-08-16T00:59:58.744Z,20.87
2022-08-16T01:00:53.937Z,20.90
2022-08-16T01:01:48.743Z,20.86
2022-08-16T01:02:48.945Z,20.77
2022-08-16T01:03:48.310Z,20.69
2022-08-16T01:05:10.641Z,20.72
2022-08-16T01:05:49.762Z,20.74
2022-08-16T01:07:01.078Z,20.72
2022-08-16T01:07:51.805Z,20.72
2022-08-16T01:08:49.665Z,20.72
2022-08-16T01:09:49.922Z,20.68
2022-08-16T01:10:50.274Z,20.69
2022-08-16T01:11:53.625Z,20.71
2022-08-16T01:12:50.732Z,20.74
2022-08-16T01:13:51.091Z,20.76
2022-08-16T01:14:51.311Z,20.68
2022-08-16T01:15:52.755Z,20.62
2022-08-16T01:16:51.842Z,20.64
2022-08-16T01:17:56.084Z,20.65
2022-08-16T01:18:52.467Z,20.62
2022-08-16T01:19:52.730Z,20.61
2022-08-16T01:20:52.942Z,20.54
2022-08-16T01:21:53.237Z,20.54
2022-08-16T01:22:53.544Z,20.53
2022-08-16T01:23:58.615Z,20.46
2022-08-16T01:24:55.681Z,20.43
2022-08-16T01:26:00.321Z,20.39
2022-08-16T01:26:55.595Z,20.35
2022-08-16T01:27:55.899Z,20.38
2022-08-16T01:28:55.134Z,20.35
2022-08-16T01:29:58.648Z,20.41
2022-08-16T01:30:55.675Z,20.43
2022-08-16T01:31:55.942Z,20.42
2022-08-16T01:32:59.487Z,20.39
2022-08-16T01:33:57.585Z,20.35
2022-08-16T01:34:57.123Z,20.39
2022-08-16T01:35:57.262Z,20.34
2022-08-16T01:36:58.469Z,20.30
2022-08-16T01:37:57.813Z,20.27
2022-08-16T01:38:58.072Z,20.28
2022-08-16T01:39:58.416Z,20.28
2022-08-16T01:40:58.661Z,20.25
2022-08-16T01:41:58.865Z,20.23
2022-08-16T01:42:59.265Z,20.24
2022-08-16T01:44:01.207Z,20.24
2022-08-16T01:44:59.823Z,20.24
2022-08-16T01:46:00.123Z,20.21
2022-08-16T01:47:01.417Z,20.24
2022-08-16T01:48:00.647Z,20.24
2022-08-16T01:49:00.945Z,20.24
2022-08-16T01:50:42.605Z,20.21
2022-08-16T01:51:08.832Z,20.23
2022-08-16T01:52:02.820Z,20.18
2022-08-16T01:53:02.077Z,20.15
2022-08-16T01:54:02.405Z,20.13
2022-08-16T01:55:02.671Z,20.10
2022-08-16T01:56:03.065Z,20.08
2022-08-16T01:57:03.281Z,20.08
2022-08-16T01:58:03.701Z,20.13
2022-08-16T01:59:03.983Z,20.10
2022-08-16T02:00:04.300Z,20.15
2022-08-16T02:01:05.503Z,20.15
2022-08-16T02:02:04.813Z,20.18
2022-08-16T02:03:06.081Z,20.15
2022-08-16T02:04:10.878Z,20.15
2022-08-16T02:05:06.690Z,20.23
2022-08-16T02:06:07.896Z,20.13
2022-08-16T02:07:06.284Z,20.13
2022-08-16T02:08:06.602Z,20.12
2022-08-16T02:09:06.896Z,20.16
2022-08-16T02:10:07.193Z,20.23
2022-08-16T02:11:07.476Z,20.28
2022-08-16T02:12:43.583Z,20.30
2022-08-16T02:13:09.021Z,20.27
2022-08-16T02:14:18.179Z,20.28
2022-08-16T02:15:09.605Z,20.31
2022-08-16T02:16:18.543Z,20.33
2022-08-16T02:17:10.149Z,20.18
2022-08-16T02:18:12.540Z,20.13
2022-08-16T02:19:16.228Z,20.15
2022-08-16T02:20:11.645Z,20.21
2022-08-16T02:21:10.215Z,20.24
2022-08-16T02:22:34.304Z,20.25
2022-08-16T02:23:11.799Z,20.31
2022-08-16T02:24:31.581Z,20.35
2022-08-16T02:25:14.730Z,20.33
2022-08-16T02:26:11.736Z,20.30
2022-08-16T02:27:13.075Z,20.28
2022-08-16T02:28:12.361Z,20.28
2022-08-16T02:29:13.621Z,20.27
2022-08-16T02:30:36.846Z,20.24
2022-08-16T02:31:14.096Z,20.18
2022-08-16T02:32:50.344Z,20.18
2022-08-16T02:33:15.441Z,20.16
2022-08-16T02:34:14.016Z,20.13
2022-08-16T02:35:14.288Z,20.16
2022-08-16T02:36:48.237Z,20.09
2022-08-16T02:37:15.943Z,20.06
2022-08-16T02:38:16.277Z,20.03
2022-08-16T02:39:15.566Z,20.02
2022-08-16T02:40:16.178Z,20.03
2022-08-16T02:41:16.162Z,20.02
2022-08-16T02:42:19.102Z,20.06
2022-08-16T02:43:16.691Z,20.06
2022-08-16T02:44:16.980Z,20.09
2022-08-16T02:45:17.419Z,19.94
2022-08-16T02:46:18.179Z,19.87
2022-08-16T02:47:25.254Z,19.88
2022-08-16T02:48:29.482Z,19.94
2022-08-16T02:49:19.452Z,19.98
2022-08-16T02:50:55.529Z,20.03
2022-08-16T02:51:23.342Z,20.05
2022-08-16T02:52:24.682Z,20.00
2022-08-16T02:53:23.675Z,19.95
2022-08-16T02:54:20.062Z,19.97
2022-08-16T02:55:40.887Z,20.03
2022-08-16T02:56:21.644Z,20.06
2022-08-16T02:57:20.988Z,20.13
2022-08-16T02:58:25.061Z,20.13
2022-08-16T02:59:21.664Z,20.10
2022-08-16T03:00:34.615Z,20.10
2022-08-16T03:01:25.133Z,20.12
2022-08-16T03:02:31.774Z,20.12
2022-08-16T03:03:24.324Z,20.20
2022-08-16T03:04:40.838Z,20.12
2022-08-16T03:05:24.370Z,20.13
2022-08-16T03:06:42.068Z,20.15
2022-08-16T03:07:27.501Z,20.15
2022-08-16T03:08:52.133Z,20.21
2022-08-16T03:09:25.614Z,20.20
2022-08-16T03:10:31.883Z,20.23
2022-08-16T03:11:26.266Z,20.27
2022-08-16T03:12:30.487Z,20.30
2022-08-16T03:13:26.939Z,20.33
2022-08-16T03:14:26.233Z,20.27
2022-08-16T03:15:27.757Z,20.28
2022-08-16T03:16:38.182Z,20.25
2022-08-16T03:17:32.148Z,20.20
2022-08-16T03:18:40.619Z,20.12
2022-08-16T03:19:47.333Z,20.08
2022-08-16T03:20:32.511Z,20.03
2022-08-16T03:21:28.214Z,20.03
2022-08-16T03:22:29.715Z,20.02
2022-08-16T03:23:35.533Z,19.94
2022-08-16T03:24:30.757Z,19.93
2022-08-16T03:25:40.899Z,19.91
2022-08-16T03:26:30.666Z,19.84
2022-08-16T03:27:30.759Z,19.78
2022-08-16T03:28:30.142Z,19.79
2022-08-16T03:29:30.613Z,19.78
2022-08-16T03:30:30.844Z,19.78
2022-08-16T03:31:34.762Z,19.79
2022-08-16T03:32:32.396Z,19.79
2022-08-16T03:33:31.724Z,19.78
2022-08-16T03:34:32.025Z,19.83
2022-08-16T03:35:32.639Z,19.83
2022-08-16T03:36:32.897Z,19.83
2022-08-16T03:37:32.821Z,19.80
2022-08-16T03:38:35.258Z,19.78
2022-08-16T03:39:33.462Z,19.79
2022-08-16T03:40:34.971Z,19.83
2022-08-16T03:41:50.200Z,19.86
2022-08-16T03:42:35.363Z,19.88
2022-08-16T03:43:51.560Z,19.87
2022-08-16T03:44:43.451Z,19.88
2022-08-16T03:45:36.144Z,19.90
2022-08-16T03:46:47.903Z,19.90
2022-08-16T03:47:36.737Z,19.98
2022-08-16T03:48:36.615Z,19.97
2022-08-16T03:49:37.025Z,19.97
2022-08-16T03:50:36.462Z,19.91
2022-08-16T03:51:36.718Z,19.95
2022-08-16T03:52:37.049Z,19.97
2022-08-16T03:53:38.589Z,19.95
2022-08-16T03:54:37.624Z,19.95
2022-08-16T03:55:45.456Z,19.95
2022-08-16T03:56:39.178Z,19.94
2022-08-16T03:57:39.520Z,19.90
2022-08-16T03:58:38.875Z,19.93
2022-08-16T03:59:39.140Z,19.91
2022-08-16T04:00:43.465Z,19.87
2022-08-16T04:01:39.827Z,19.91
2022-08-16T04:02:40.291Z,19.91
2022-08-16T04:03:40.226Z,19.94
2022-08-16T04:04:40.560Z,19.93
2022-08-16T04:05:40.882Z,19.94
2022-08-16T04:06:41.062Z,19.95
2022-08-16T04:07:41.436Z,19.93
2022-08-16T04:08:41.700Z,19.95
2022-08-16T04:09:42.056Z,20.00
2022-08-16T04:10:42.317Z,20.06
2022-08-16T04:11:42.529Z,20.08
2022-08-16T04:12:52.287Z,20.12
2022-08-16T04:14:01.060Z,20.13
2022-08-16T04:14:46.386Z,20.18
2022-08-16T04:15:43.686Z,20.13
2022-08-16T04:16:43.944Z,20.12
2022-08-16T04:17:44.256Z,20.12
2022-08-16T04:18:44.629Z,20.09
2022-08-16T04:19:45.593Z,20.10
2022-08-16T04:20:45.201Z,20.08
2022-08-16T04:21:47.499Z,20.10
2022-08-16T04:22:46.016Z,20.10
2022-08-16T04:23:46.122Z,20.13
2022-08-16T04:24:54.861Z,20.13
2022-08-16T04:25:47.713Z,20.05
2022-08-16T04:26:46.972Z,20.02
2022-08-16T04:27:55.876Z,19.97
2022-08-16T04:28:53.334Z,19.93
2022-08-16T04:29:48.747Z,19.94
2022-08-16T04:30:48.108Z,19.91
2022-08-16T04:31:56.440Z,19.94
2022-08-16T04:32:49.974Z,19.95
2022-08-16T04:33:50.930Z,19.91
2022-08-16T04:34:49.250Z,19.95
2022-08-16T04:35:49.796Z,19.98
2022-08-16T04:36:49.903Z,20.03
2022-08-16T04:37:53.810Z,20.05
2022-08-16T04:38:50.456Z,20.05
2022-08-16T04:39:55.622Z,20.02
2022-08-16T04:40:52.041Z,20.03
2022-08-16T04:41:56.562Z,19.95
2022-08-16T04:42:52.817Z,19.97
2022-08-16T04:43:51.837Z,19.91
2022-08-16T04:44:53.590Z,19.88
2022-08-16T04:46:00.559Z,19.95
2022-08-16T04:47:01.114Z,19.95
2022-08-16T04:47:56.305Z,19.95
2022-08-16T04:48:53.118Z,19.95
2022-08-16T04:49:53.478Z,19.90
2022-08-16T04:50:53.708Z,19.87
2022-08-16T04:51:55.484Z,19.91
2022-08-16T04:52:55.648Z,19.86
2022-08-16T04:53:54.580Z,19.90
2022-08-16T04:54:54.882Z,19.90
2022-08-16T04:55:55.207Z,19.87
2022-08-16T04:56:55.415Z,19.80
2022-08-16T04:57:55.699Z,19.80
2022-08-16T04:58:57.603Z,19.75
2022-08-16T04:59:56.263Z,19.78
2022-08-16T05:00:56.708Z,19.83
2022-08-16T05:01:59.218Z,19.88
2022-08-16T05:02:58.970Z,19.91
2022-08-16T05:04:00.262Z,19.95
2022-08-16T05:04:57.624Z,20.00
2022-08-16T05:05:59.737Z,20.05
2022-08-16T05:06:59.257Z,20.08
2022-08-16T05:08:00.268Z,20.10
2022-08-16T05:08:58.786Z,20.13
2022-08-16T05:09:59.032Z,20.20
2022-08-16T05:11:00.210Z,20.24
2022-08-16T05:11:59.620Z,20.20
2022-08-16T05:12:59.953Z,20.23
2022-08-16T05:14:07.053Z,20.25
2022-08-16T05:15:02.637Z,20.24
2022-08-16T05:16:00.752Z,20.23
2022-08-16T05:17:01.000Z,20.18
2022-08-16T05:18:03.493Z,20.15
2022-08-16T05:19:01.499Z,20.13
2022-08-16T05:20:01.719Z,20.15
2022-08-16T05:21:11.010Z,20.13
2022-08-16T05:22:03.333Z,20.13
2022-08-16T05:23:02.608Z,20.18
2022-08-16T05:24:03.104Z,20.18
2022-08-16T05:25:08.818Z,20.16
2022-08-16T05:26:04.469Z,20.20
2022-08-16T05:27:11.466Z,20.24
2022-08-16T05:28:05.075Z,20.25
2022-08-16T05:29:04.704Z,20.28
2022-08-16T05:30:34.708Z,20.31
2022-08-16T05:31:06.820Z,20.34
2022-08-16T05:32:05.106Z,20.33
2022-08-16T05:33:16.822Z,20.31
2022-08-16T05:34:19.749Z,20.31
2022-08-16T05:35:06.878Z,20.28
2022-08-16T05:36:14.285Z,20.28
2022-08-16T05:37:07.437Z,20.30
2022-08-16T05:38:33.020Z,20.27
2022-08-16T05:39:08.023Z,20.33
2022-08-16T05:40:07.249Z,20.39
2022-08-16T05:41:07.559Z,20.38
2022-08-16T05:42:07.782Z,20.47
2022-08-16T05:43:08.044Z,20.49
2022-08-16T05:44:23.260Z,20.43
2022-08-16T05:45:09.562Z,20.46
2022-08-16T05:46:28.772Z,20.46
2022-08-16T05:47:10.018Z,20.46
2022-08-16T05:48:10.320Z,20.47
2022-08-16T05:49:09.934Z,20.51
2022-08-16T05:50:09.893Z,20.58
2022-08-16T05:51:11.122Z,20.54
2022-08-16T05:52:13.663Z,20.61
2022-08-16T05:53:11.739Z,20.58
2022-08-16T05:54:11.674Z,20.61
2022-08-16T05:55:11.252Z,20.64
2022-08-16T05:56:11.561Z,20.68
2022-08-16T05:57:13.342Z,20.74
2022-08-16T05:58:31.367Z,20.76
2022-08-16T05:59:13.391Z,20.79
2022-08-16T06:00:12.602Z,20.84
2022-08-16T06:01:13.857Z,20.84
2022-08-16T06:02:13.159Z,20.84
2022-08-16T06:03:13.497Z,20.80
2022-08-16T06:04:36.633Z,20.79
2022-08-16T06:05:14.971Z,20.84
2022-08-16T06:06:14.168Z,20.83
2022-08-16T06:07:38.449Z,20.84
2022-08-16T06:08:32.154Z,20.84
2022-08-16T06:09:16.956Z,20.83
2022-08-16T06:10:15.279Z,20.81
2022-08-16T06:11:16.542Z,20.84
2022-08-16T06:12:27.005Z,20.90
2022-08-16T06:13:17.172Z,20.90
2022-08-16T06:14:16.349Z,20.93
2022-08-16T06:15:16.753Z,20.95
2022-08-16T06:16:18.393Z,21.01
2022-08-16T06:17:17.213Z,21.01
2022-08-16T06:18:17.587Z,21.06
2022-08-16T06:19:17.879Z,21.09
2022-08-16T06:20:24.219Z,21.13
2022-08-16T06:21:22.761Z,21.16
2022-08-16T06:22:37.133Z,21.14
2022-08-16T06:23:20.181Z,21.17
2022-08-16T06:24:54.216Z,21.19
2022-08-16T06:25:20.402Z,21.16
2022-08-16T06:26:20.707Z,21.17
2022-08-16T06:27:20.007Z,21.14
2022-08-16T06:28:34.781Z,21.17
2022-08-16T06:29:21.585Z,21.20
2022-08-16T06:30:20.995Z,21.24
2022-08-16T06:31:24.549Z,21.24
2022-08-16T06:32:27.688Z,21.29
2022-08-16T06:33:22.910Z,21.38
2022-08-16T06:34:55.442Z,21.36
2022-08-16T06:35:23.204Z,21.39
2022-08-16T06:36:22.589Z,21.46
2022-08-16T06:37:22.844Z,21.56
2022-08-16T06:38:33.830Z,21.66
2022-08-16T06:39:24.358Z,21.69
2022-08-16T06:40:23.734Z,21.67
2022-08-16T06:41:27.364Z,21.56
2022-08-16T06:42:24.303Z,21.54
2022-08-16T06:43:27.553Z,21.59
2022-08-16T06:44:27.028Z,21.60
2022-08-16T06:45:29.124Z,21.67
2022-08-16T06:46:31.613Z,21.72
2022-08-16T06:47:52.333Z,21.75
2022-08-16T06:48:32.645Z,21.78
2022-08-16T06:49:27.438Z,21.83
2022-08-16T06:50:29.382Z,21.88
2022-08-16T06:51:45.179Z,21.95
2022-08-16T06:52:58.354Z,21.95
2022-08-16T06:53:29.728Z,21.91
2022-08-16T06:54:27.845Z,21.92
2022-08-16T06:55:32.204Z,21.91
2022-08-16T06:56:29.539Z,21.83
2022-08-16T06:57:28.797Z,21.82
2022-08-16T06:58:31.345Z,21.83
2022-08-16T06:59:29.323Z,21.88
2022-08-16T07:00:29.523Z,21.94
2022-08-16T07:01:43.337Z,21.99
2022-08-16T07:02:33.422Z,22.04
2022-08-16T07:03:32.270Z,22.09
2022-08-16T07:04:32.720Z,21.99
2022-08-16T07:05:41.589Z,21.99
2022-08-16T07:06:32.398Z,21.95
2022-08-16T07:07:34.380Z,21.85
2022-08-16T07:08:31.937Z,21.75
2022-08-16T07:09:32.642Z,21.76
2022-08-16T07:10:32.491Z,21.78
2022-08-16T07:11:47.243Z,21.81
2022-08-16T07:12:47.728Z,21.85
2022-08-16T07:14:35.024Z,21.91
2022-08-16T07:15:33.959Z,21.97
2022-08-16T07:16:34.287Z,22.01
2022-08-16T07:17:34.475Z,22.09
2022-08-16T07:18:34.894Z,22.17
2022-08-16T07:20:30.275Z,22.28
2022-08-16T07:20:47.619Z,22.29
2022-08-16T07:21:46.580Z,22.35
2022-08-16T07:22:39.681Z,22.35
2022-08-16T07:23:38.834Z,22.41
2022-08-16T07:24:36.645Z,22.46
2022-08-16T07:25:40.155Z,22.54
2022-08-16T07:26:37.220Z,22.56
2022-08-16T07:27:37.704Z,22.67
2022-08-16T07:28:37.750Z,22.69
2022-08-16T07:29:38.018Z,22.69
2022-08-16T07:30:46.451Z,22.74
2022-08-16T07:31:39.570Z,22.82
2022-08-16T07:32:39.771Z,22.83
2022-08-16T07:33:53.489Z,22.84
2022-08-16T07:34:48.565Z,22.84
2022-08-16T07:35:44.554Z,22.78
2022-08-16T07:36:40.949Z,22.77
2022-08-16T07:37:40.234Z,22.71
2022-08-16T07:38:40.484Z,22.77
2022-08-16T07:39:43.075Z,22.75
2022-08-16T07:40:59.312Z,22.82
2022-08-16T07:41:42.422Z,22.83
2022-08-16T07:42:41.726Z,22.89
2022-08-16T07:43:43.306Z,22.97
2022-08-16T07:44:50.360Z,22.99
2022-08-16T07:45:44.745Z,23.07
2022-08-16T07:46:42.771Z,23.07
2022-08-16T07:47:43.133Z,23.15
2022-08-16T07:48:43.414Z,23.27
2022-08-16T07:49:52.836Z,23.38
2022-08-16T07:50:56.041Z,23.40
2022-08-16T07:51:45.264Z,23.38
2022-08-16T07:52:45.037Z,23.39
2022-08-16T07:53:44.839Z,23.29
2022-08-16T07:54:45.916Z,23.19
2022-08-16T07:55:47.689Z,23.27
2022-08-16T07:56:45.642Z,23.31
2022-08-16T07:58:00.625Z,23.38
2022-08-16T07:58:47.229Z,23.43
2022-08-16T07:59:47.715Z,23.45
2022-08-16T08:00:46.879Z,23.53
2022-08-16T08:01:47.110Z,23.55
2022-08-16T08:02:47.583Z,23.58
2022-08-16T08:03:49.264Z,23.57
2022-08-16T08:04:48.048Z,23.52
2022-08-16T08:05:48.153Z,23.64
2022-08-16T08:06:51.161Z,23.80
2022-08-16T08:07:48.763Z,23.82
2022-08-16T08:08:52.018Z,23.90
2022-08-16T08:09:49.220Z,23.94
2022-08-16T08:10:49.531Z,23.94
2022-08-16T08:12:00.046Z,24.04
2022-08-16T08:12:51.343Z,24.08
2022-08-16T08:13:50.742Z,24.23
2022-08-16T08:14:50.685Z,24.39
2022-08-16T08:15:52.652Z,24.56
2022-08-16T08:16:51.209Z,24.71
2022-08-16T08:17:51.454Z,24.88
2022-08-16T08:18:56.217Z,25.06
2022-08-16T08:19:53.657Z,25.10
2022-08-16T08:20:59.209Z,25.20
2022-08-16T08:22:00.793Z,25.31
2022-08-16T08:22:53.847Z,25.42
2022-08-16T08:23:54.166Z,25.52
2022-08-16T08:24:53.435Z,25.46
2022-08-16T08:25:55.821Z,25.53
2022-08-16T08:26:53.936Z,25.74
2022-08-16T08:27:57.631Z,25.87
2022-08-16T08:28:54.479Z,25.89
2022-08-16T08:30:49.660Z,25.65
2022-08-16T08:31:01.596Z,25.90
2022-08-16T08:31:56.429Z,26.42
2022-08-16T08:32:59.690Z,26.81
2022-08-16T08:33:56.933Z,27.14
2022-08-16T08:34:56.275Z,27.53
2022-08-16T08:35:57.503Z,27.92
2022-08-16T08:36:56.790Z,28.38
2022-08-16T08:37:57.081Z,28.53
2022-08-16T08:38:57.363Z,28.58
2022-08-16T08:39:57.681Z,28.58
2022-08-16T08:40:57.933Z,28.48
2022-08-16T08:41:58.179Z,28.54
2022-08-16T08:43:00.729Z,28.82
2022-08-16T08:43:59.743Z,29.19
2022-08-16T08:44:58.995Z,29.31
2022-08-16T08:45:59.222Z,29.15
2022-08-16T08:47:01.360Z,28.78
2022-08-16T08:47:59.820Z,28.68
2022-08-16T08:49:02.396Z,28.97
2022-08-16T08:50:00.470Z,29.44
2022-08-16T08:51:00.697Z,29.87
2022-08-16T08:52:00.939Z,29.94
2022-08-16T08:53:02.179Z,29.93
2022-08-16T08:54:01.525Z,30.02
2022-08-16T08:55:02.777Z,29.82
2022-08-16T08:56:22.939Z,30.08
2022-08-16T08:57:03.341Z,30.46
2022-08-16T08:58:02.583Z,30.49
2022-08-16T08:59:04.652Z,30.59
2022-08-16T09:00:03.144Z,30.49
2022-08-16T09:01:04.444Z,30.40
2022-08-16T09:02:03.813Z,30.38
2022-08-16T09:03:04.601Z,30.30
2022-08-16T09:04:04.613Z,30.43
2022-08-16T09:05:15.593Z,30.46
2022-08-16T09:06:05.890Z,30.67
2022-08-16T09:07:05.282Z,31.12
2022-08-16T09:08:05.888Z,31.17
2022-08-16T09:09:05.834Z,31.39
2022-08-16T09:10:20.336Z,31.73
2022-08-16T09:11:07.523Z,31.72
2022-08-16T09:12:07.244Z,31.80
2022-08-16T09:13:08.038Z,31.65
2022-08-16T09:14:07.273Z,31.64
2022-08-16T09:15:07.562Z,31.73
2022-08-16T09:16:07.812Z,31.65
2022-08-16T09:17:12.019Z,31.61
2022-08-16T09:18:25.402Z,31.70
2022-08-16T09:20:09.019Z,32.07
2022-08-16T09:21:09.320Z,32.07
2022-08-16T09:22:20.795Z,31.93
2022-08-16T09:23:10.770Z,32.03
2022-08-16T09:24:10.207Z,30.61
2022-08-16T09:25:12.789Z,31.06
2022-08-16T09:26:43.990Z,31.38
2022-08-16T09:27:11.857Z,31.85
2022-08-16T09:28:11.121Z,31.93
2022-08-16T09:29:14.949Z,32.10
2022-08-16T09:30:33.302Z,32.33
2022-08-16T09:31:12.971Z,32.64
2022-08-16T09:32:12.277Z,32.66
2022-08-16T09:33:13.629Z,32.88
2022-08-16T09:34:18.682Z,32.76
2022-08-16T09:35:14.117Z,32.76
2022-08-16T09:36:32.304Z,32.88
2022-08-16T09:37:17.947Z,33.33
2022-08-16T09:38:31.080Z,33.61
2022-08-16T09:39:16.047Z,34.13
2022-08-16T09:40:31.863Z,34.64
2022-08-16T09:41:15.883Z,34.83
2022-08-16T09:42:15.339Z,34.92
2022-08-16T09:43:46.484Z,35.10
2022-08-16T09:45:10.569Z,35.07
2022-08-16T09:45:18.063Z,35.17
2022-08-16T09:46:45.288Z,34.99
2022-08-16T09:47:17.455Z,34.73
2022-08-16T09:48:43.878Z,34.42
2022-08-16T09:49:19.654Z,34.19
2022-08-16T09:50:22.571Z,34.39
2022-08-16T09:51:18.747Z,34.38
2022-08-16T09:52:17.946Z,34.48
2022-08-16T09:53:18.743Z,34.16
2022-08-16T09:54:20.995Z,34.16
2022-08-16T09:55:18.927Z,33.92
2022-08-16T09:56:19.211Z,33.49
2022-08-16T09:57:19.435Z,32.81
2022-08-16T09:58:40.722Z,31.77
2022-08-16T09:59:21.022Z,31.20
2022-08-16T10:00:44.559Z,31.53
2022-08-16T10:01:21.612Z,32.15
2022-08-16T10:02:25.965Z,31.84
2022-08-16T10:03:22.192Z,31.35
2022-08-16T10:04:30.496Z,30.80
2022-08-16T10:05:22.673Z,29.99
2022-08-16T10:06:21.869Z,29.53
2022-08-16T10:07:22.267Z,29.57
2022-08-16T10:08:26.502Z,29.41
2022-08-16T10:09:22.995Z,29.20
2022-08-16T10:10:30.375Z,29.08
2022-08-16T10:11:24.792Z,29.18
2022-08-16T10:12:23.707Z,30.14
2022-08-16T10:13:24.012Z,29.96
2022-08-16T10:14:24.690Z,29.57
2022-08-16T10:15:25.584Z,29.25
2022-08-16T10:16:24.762Z,28.93
2022-08-16T10:17:25.260Z,28.59
2022-08-16T10:19:00.304Z,28.17
2022-08-16T10:19:26.641Z,27.69
2022-08-16T10:20:25.969Z,27.62
2022-08-16T10:21:29.115Z,27.70
2022-08-16T10:22:27.687Z,27.46
2022-08-16T10:23:28.693Z,27.43
2022-08-16T10:24:28.302Z,27.58
2022-08-16T10:27:17.655Z,27.62
2022-08-16T10:27:18.202Z,27.67
2022-08-16T10:27:47.082Z,27.57
2022-08-16T10:28:31.874Z,27.53
2022-08-16T10:30:00.055Z,27.36
2022-08-16T10:30:32.742Z,27.36
2022-08-16T10:31:45.548Z,27.47
2022-08-16T10:32:31.981Z,27.51
2022-08-16T10:33:33.194Z,27.62
2022-08-16T10:34:31.142Z,27.62
2022-08-16T10:35:33.032Z,27.66
2022-08-16T10:36:39.043Z,27.58
2022-08-16T10:37:32.535Z,27.43
2022-08-16T10:38:33.081Z,27.58
2022-08-16T10:39:40.457Z,29.08
2022-08-16T10:40:32.834Z,30.31
2022-08-16T10:41:32.039Z,31.11
2022-08-16T10:42:32.348Z,32.17
2022-08-16T10:43:32.596Z,32.88
2022-08-16T10:44:32.825Z,33.48
2022-08-16T10:45:36.973Z,33.92
2022-08-16T10:46:39.303Z,34.34
2022-08-16T10:47:38.182Z,34.04
2022-08-16T10:48:33.879Z,34.32
2022-08-16T10:49:34.235Z,34.64
2022-08-16T10:50:34.500Z,34.69
2022-08-16T10:52:03.481Z,35.07
2022-08-16T10:53:35.229Z,34.72
2022-08-16T10:54:58.400Z,34.51
2022-08-16T10:55:40.666Z,34.56
2022-08-16T10:56:51.700Z,34.63
2022-08-16T10:57:37.804Z,34.76
2022-08-16T10:58:36.738Z,34.70
2022-08-16T10:59:44.021Z,34.08
2022-08-16T11:00:38.397Z,33.90
2022-08-16T11:01:43.269Z,34.09
2022-08-16T11:03:37.597Z,34.24
2022-08-16T11:03:43.104Z,34.63
2022-08-16T11:06:40.408Z,35.08
2022-08-16T11:07:43.054Z,35.03
2022-08-16T11:08:45.294Z,34.98
2022-08-16T11:09:43.178Z,35.10
2022-08-16T11:12:41.699Z,35.92
2022-08-16T11:15:11.219Z,36.20
2022-08-16T11:15:47.864Z,36.11
2022-08-16T11:17:45.046Z,36.91
2022-08-16T11:18:48.275Z,37.32
2022-08-16T11:20:49.329Z,34.64
2022-08-16T11:22:48.583Z,35.25
2022-08-16T11:23:58.101Z,35.64
2022-08-16T11:24:45.490Z,35.79
2022-08-16T11:26:45.960Z,34.76
2022-08-16T11:27:45.960Z,34.48
2022-08-16T11:29:46.857Z,34.86
2022-08-16T11:30:45.812Z,35.01
2022-08-16T11:31:53.767Z,34.96
2022-08-16T11:32:47.576Z,34.51
2022-08-16T11:33:53.871Z,34.56
2022-08-16T11:35:09.883Z,34.98
2022-08-16T11:36:53.690Z,34.66
2022-08-16T11:38:57.282Z,35.74
2022-08-16T11:39:49.387Z,36.15
2022-08-16T11:40:52.698Z,36.45
2022-08-16T11:41:50.644Z,36.45
2022-08-16T11:42:49.103Z,36.21
2022-08-16T11:43:49.388Z,36.45
2022-08-16T11:44:56.180Z,36.11
2022-08-16T11:45:53.618Z,34.95
2022-08-16T11:46:50.237Z,33.74
2022-08-16T11:47:50.621Z,33.53
2022-08-16T11:48:50.779Z,33.65
2022-08-16T11:49:51.095Z,33.70
2022-08-16T11:50:51.357Z,33.90
2022-08-16T11:51:51.626Z,34.41
2022-08-16T11:52:51.887Z,34.96
2022-08-16T11:53:52.182Z,35.13
2022-08-16T11:54:53.750Z,35.39
2022-08-16T11:55:54.934Z,35.69
2022-08-16T11:56:57.685Z,36.07
2022-08-16T11:57:57.358Z,35.66
2022-08-16T11:58:56.847Z,35.11
2022-08-16T11:59:53.939Z,34.77
2022-08-16T12:00:54.338Z,34.35
2022-08-16T12:01:59.076Z,34.17
2022-08-16T12:02:55.702Z,33.43
2022-08-16T12:03:55.019Z,33.19
2022-08-16T12:04:55.276Z,33.15
2022-08-16T12:05:55.602Z,33.01
2022-08-16T12:06:55.835Z,32.84
2022-08-16T12:07:56.087Z,32.73
2022-08-16T12:08:56.377Z,32.73
2022-08-16T12:09:56.709Z,32.92
2022-08-16T12:10:59.227Z,32.95
2022-08-16T12:11:57.225Z,33.08
2022-08-16T12:12:57.914Z,33.22
2022-08-16T12:13:57.792Z,33.11
2022-08-16T12:15:00.062Z,32.79
2022-08-16T12:15:58.364Z,32.57
2022-08-16T12:16:58.649Z,32.40
2022-08-16T12:17:58.853Z,32.05
2022-08-16T12:18:59.328Z,31.67
2022-08-16T12:19:59.520Z,31.50
2022-08-16T12:21:00.005Z,30.67
2022-08-16T12:22:00.076Z,29.96
2022-08-16T12:23:00.440Z,29.60
2022-08-16T12:24:00.671Z,29.49
2022-08-16T12:25:00.992Z,29.68
2022-08-16T12:26:01.234Z,29.90
2022-08-16T12:27:02.451Z,30.15
2022-08-16T12:28:02.834Z,30.37
2022-08-16T12:29:02.132Z,30.30
2022-08-16T12:30:02.493Z,30.09
2022-08-16T12:31:02.734Z,30.21
2022-08-16T12:32:27.203Z,30.37
2022-08-16T12:33:04.309Z,30.49
2022-08-16T12:34:03.592Z,30.47
2022-08-16T12:35:03.907Z,30.46
2022-08-16T12:36:04.137Z,30.47
2022-08-16T12:37:10.370Z,30.30
2022-08-16T12:38:37.995Z,30.38
2022-08-16T12:39:06.090Z,30.40
2022-08-16T12:40:05.403Z,30.43
2022-08-16T12:41:05.633Z,30.24
2022-08-16T12:42:05.935Z,30.15
2022-08-16T12:43:06.232Z,30.05
2022-08-16T12:44:06.424Z,29.99
2022-08-16T12:45:06.766Z,30.03
2022-08-16T12:46:06.995Z,30.09
2022-08-16T12:47:07.305Z,30.18
2022-08-16T12:48:31.506Z,30.29
2022-08-16T12:49:08.889Z,30.38
2022-08-16T12:50:14.713Z,30.52
2022-08-16T12:51:19.899Z,30.64
2022-08-16T12:52:09.746Z,30.74
2022-08-16T12:53:10.044Z,30.81
2022-08-16T12:54:09.586Z,30.81
2022-08-16T12:55:09.625Z,30.78
2022-08-16T12:56:09.914Z,30.61
2022-08-16T12:57:14.328Z,30.50
2022-08-16T12:58:13.472Z,30.38
2022-08-16T12:59:12.199Z,30.36
2022-08-16T13:00:12.097Z,30.02
2022-08-16T13:01:12.433Z,30.02
2022-08-16T13:02:12.401Z,29.94
2022-08-16T13:03:12.936Z,29.78
2022-08-16T13:04:20.381Z,29.75
2022-08-16T13:05:14.285Z,29.55
2022-08-16T13:06:12.804Z,29.57
2022-08-16T13:07:13.066Z,29.74
2022-08-16T13:08:20.189Z,29.89
2022-08-16T13:09:14.620Z,29.99
2022-08-16T13:10:20.596Z,30.07
2022-08-16T13:11:15.221Z,29.92